Time;durP1;ratioP1;P1;durP2;ratioP2;P2;SDS_P1;SDS_P2;PMS_P1;PMS_P2;Temp;Humidity;BMP_temperature;BMP_pressure;BME280_temperature;BME280_humidity;BME280_pressure;Samples;Min_cycle;Max_cycle;Signal;HPM_P1;HPM_P2
2022/11/15 00:05:19;;;;;;;;;;;;;;;9.10;65.06;99893.38;10115919;29;20033;-79
2022/11/15 00:10:40;;;;;;;11.57;6.93;;;;;;;9.19;65.78;99894.47;10099160;29;19994;-80
2022/11/15 00:16:04;;;;;;;10.13;6.72;;;;;;;9.23;66.94;99894.06;10074787;29;20139;-80
2022/11/15 00:21:25;;;;;;;12.45;6.97;;;;;;;9.20;66.79;99888.97;10084012;29;20060;-80
2022/11/15 00:26:46;;;;;;;10.18;6.47;;;;;;;9.26;66.63;99877.72;10092282;29;20135;-80
2022/11/15 00:32:09;;;;;;;10.93;6.40;;;;;;;9.31;66.53;99888.09;10139546;29;20056;-80
2022/11/15 00:37:30;;;;;;;8.00;6.35;;;;;;;9.31;66.57;99885.41;10122273;29;20048;-79
2022/11/15 00:42:52;;;;;;;10.18;6.75;;;;;;;9.36;66.65;99877.84;10118383;29;20048;-79
2022/11/15 00:48:14;;;;;;;8.32;6.75;;;;;;;9.41;67.04;99878.31;10097225;29;20049;-80
2022/11/15 00:53:36;;;;;;;12.32;7.25;;;;;;;9.47;67.41;99864.38;10084520;29;20044;-79
2022/11/15 00:58:58;;;;;;;11.05;7.13;;;;;;;9.54;67.54;99861.16;10084895;29;20052;-79
2022/11/15 01:04:20;;;;;;;9.15;6.60;;;;;;;9.59;68.18;99861.63;10083047;29;20064;-80
2022/11/15 01:09:42;;;;;;;11.90;7.10;;;;;;;9.64;68.88;99846.00;10099765;29;20084;-78
2022/11/15 01:15:04;;;;;;;9.55;6.32;;;;;;;9.74;69.19;99833.50;10085279;29;20136;-79
2022/11/15 01:20:26;;;;;;;12.15;7.30;;;;;;;9.85;69.25;99835.25;10085897;29;20044;-79
2022/11/15 01:25:48;;;;;;;;;;;;;;;9.93;69.59;99839.00;10093083;29;20052;-79
2022/11/15 01:31:12;;;;;;;10.23;6.68;;;;;;;10.00;69.62;99819.69;10077561;29;20033;-78
2022/11/15 01:36:35;;;;;;;9.90;6.93;;;;;;;10.04;69.88;99821.97;10088446;29;20207;-79
2022/11/15 01:41:56;;;;;;;8.25;6.68;;;;;;;10.13;69.70;99815.78;10137096;29;20144;-79
2022/11/15 01:47:21;;;;;;;11.80;6.93;;;;;;;10.12;69.91;99811.41;10089888;29;20498;-79
2022/11/15 01:52:44;;;;;;;10.52;8.10;;;;;;;9.87;69.73;99802.00;10086470;29;20049;-79
2022/11/15 01:58:08;;;;;;;10.13;8.38;;;;;;;9.63;69.99;99802.25;10089028;29;21884;-78
2022/11/15 02:03:37;;;;;;;17.70;8.82;;;;;;;9.50;70.41;99799.75;10089101;29;20540;-79
2022/11/15 02:09:01;;;;;;;12.68;9.32;;;;;;;9.23;71.27;99794.06;10093075;29;20144;-79
2022/11/15 02:14:24;;;;;;;15.68;8.85;;;;;;;9.05;71.98;99791.97;10094326;29;20052;-79
2022/11/15 02:20:26;;;;;;;11.77;8.70;;;;;;;9.05;72.68;99789.31;10089062;29;20515;-78
2022/11/15 02:26:07;;;;;;;16.00;9.65;;;;;;;9.15;72.66;99792.03;10092683;29;20082;-77
2022/11/15 02:31:37;;;;;;;13.63;10.18;;;;;;;9.18;73.01;99790.94;10122448;29;20096;-79
2022/11/15 02:37:04;;;;;;;14.75;9.73;;;;;;;9.20;73.39;99795.19;10132054;29;20044;-79
2022/11/15 02:48:12;;;;;;;15.10;10.18;;;;;;;9.24;73.80;99787.72;10117848;29;20049;-78
2022/11/15 02:53:33;;;;;;;14.32;10.38;;;;;;;9.26;74.15;99780.41;10112709;29;20057;-79
2022/11/15 02:59:12;;;;;;;20.10;11.30;;;;;;;9.34;74.95;99780.59;10135251;29;20136;-79
2022/11/15 03:04:44;;;;;;;15.45;11.82;;;;;;;9.70;76.29;99770.38;10147570;29;20049;-78
2022/11/15 03:10:10;;;;;;;15.60;10.95;;;;;;;10.07;75.54;99764.50;10119869;29;20041;-79
2022/11/15 03:15:37;;;;;;;13.27;10.82;;;;;;;10.25;74.63;99757.47;10145962;29;20459;-78
2022/11/15 03:21:03;;;;;;;16.00;10.38;;;;;;;10.26;74.41;99775.28;10143537;29;20049;-79
2022/11/15 03:26:26;;;;;;;17.25;11.60;;;;;;;10.26;74.28;99767.25;10126750;29;20419;-80
2022/11/15 03:31:52;;;;;;;19.08;13.57;;;;;;;10.27;74.33;99766.25;10136605;29;20048;-79
2022/11/15 03:37:18;;;;;;;23.35;13.15;;;;;;;10.28;74.24;99767.94;10122137;29;20049;-81
2022/11/15 03:42:44;;;;;;;19.65;13.48;;;;;;;10.29;74.35;99769.66;10120602;29;20052;-81
2022/11/15 03:48:13;;;;;;;22.67;12.55;;;;;;;10.32;74.32;99761.31;10116765;29;20041;-81
2022/11/15 03:53:36;;;;;;;26.92;14.55;;;;;;;10.29;74.78;99760.75;10129283;29;20063;-79
2022/11/15 03:58:57;;;;;;;20.00;13.00;;;;;;;10.35;74.60;99770.94;10103905;29;20053;-79
2022/11/15 04:04:18;;;;;;;23.38;14.10;;;;;;;10.38;74.60;99768.81;10114308;29;20140;-81
2022/11/15 04:15:18;;;;;;;17.55;13.38;;;;;;;10.28;74.67;99773.28;10122107;29;20384;-80
2022/11/15 04:26:21;;;;;;;20.27;14.20;;;;;;;10.31;74.78;99777.53;10113463;29;20530;-78
2022/11/15 04:31:43;;;;;;;21.38;14.10;;;;;;;10.25;74.90;99773.56;10118993;29;20085;-78
2022/11/15 04:37:13;;;;;;;23.55;15.23;;;;;;;10.14;75.48;99779.06;10133518;29;20107;-81
2022/11/15 04:42:35;;;;;;;24.35;14.82;;;;;;;10.16;75.49;99775.25;10134987;29;20426;-81
2022/11/15 04:47:56;;;;;;;18.40;13.45;;;;;;;10.10;75.77;99780.31;10114969;29;20056;-80
2022/11/15 04:53:18;;;;;;;25.00;14.45;;;;;;;10.05;76.17;99779.88;10127997;29;20057;-80
2022/11/15 04:58:40;;;;;;;19.17;14.40;;;;;;;10.02;76.16;99775.63;10128197;29;20057;-79
2022/11/15 05:09:40;;;;;;;26.30;15.55;;;;;;;9.97;76.17;99772.50;10118809;29;20060;-81
2022/11/15 05:15:03;;;;;;;20.40;14.48;;;;;;;9.91;76.26;99770.38;10128590;29;20076;-81
2022/11/15 05:20:24;;;;;;;;;;;;;;;9.92;76.18;99766.69;10120356;29;20048;-80
2022/11/15 05:25:45;;;;;;;26.70;16.95;;;;;;;9.81;76.54;99775.66;10112121;29;19959;-81
2022/11/15 05:31:10;;;;;;;23.63;15.50;;;;;;;9.88;76.62;99765.28;10122781;29;20522;-79
2022/11/15 05:36:36;;;;;;;26.02;15.18;;;;;;;9.90;76.55;99776.69;10137306;29;20053;-80
2022/11/15 05:42:02;;;;;;;20.88;13.52;;;;;;;9.93;76.36;99771.09;10103732;29;20057;-81
2022/11/15 05:47:28;;;;;;;23.80;14.63;;;;;;;9.91;76.25;99779.25;10119171;29;20049;-78
2022/11/15 05:52:52;;;;;;;23.95;14.82;;;;;;;9.89;76.25;99773.16;10145392;29;20076;-80
2022/11/15 05:58:13;;;;;;;22.35;14.27;;;;;;;9.94;76.28;99767.41;10124655;29;20048;-81
2022/11/15 06:03:36;;;;;;;21.42;14.30;;;;;;;9.95;76.31;99758.38;10120040;29;20063;-81
2022/11/15 06:08:57;;;;;;;19.42;13.13;;;;;;;9.99;76.63;99767.00;10103371;29;20057;-81
2022/11/15 06:14:18;;;;;;;23.35;14.13;;;;;;;10.02;76.40;99766.75;10105332;29;20053;-80
2022/11/15 06:19:41;;;;;;;20.88;13.63;;;;;;;10.01;76.24;99765.91;10124737;29;20500;-81
2022/11/15 06:25:02;;;;;;;20.65;13.40;;;;;;;10.05;76.19;99751.19;10153204;29;20451;-80
2022/11/15 06:30:27;;;;;;;15.65;12.00;;;;;;;10.08;76.16;99758.13;10151489;29;20049;-81
2022/11/15 06:35:49;;;;;;;15.77;12.80;;;;;;;10.11;75.94;99758.69;10114339;29;20057;-81
2022/11/15 06:41:11;;;;;;;18.40;12.40;;;;;;;10.16;76.06;99763.66;10129693;29;20052;-80
2022/11/15 06:46:33;;;;;;;19.03;11.07;;;;;;;10.17;76.04;99768.03;10127741;29;20522;-80
2022/11/15 06:51:55;;;;;;;16.63;11.35;;;;;;;10.20;75.86;99773.13;10140918;29;20053;-81
2022/11/15 06:57:17;;;;;;;15.75;11.27;;;;;;;10.20;75.84;99770.44;10120552;29;20136;-80
2022/11/15 07:02:38;;;;;;;16.05;11.07;;;;;;;10.22;75.83;99773.84;10160757;29;20036;-80
2022/11/15 07:08:01;;;;;;;16.65;11.35;;;;;;;10.31;75.80;99785.59;10188312;29;20049;-79
2022/11/15 07:13:25;;;;;;;16.77;10.88;;;;;;;10.37;75.55;99783.22;10119499;29;20045;-79
2022/11/15 07:18:47;;;;;;;16.40;10.52;;;;;;;10.40;75.46;99787.47;10123502;29;20041;-79
2022/11/15 07:24:10;;;;;;;12.40;5.03;;;;;;;10.50;75.38;99788.31;10130685;29;20052;-81
2022/11/15 07:29:31;;;;;;;9.30;6.07;;;;;;;11.04;75.34;99786.97;10119301;29;20045;-80
2022/11/15 07:34:52;;;;;;;11.70;7.47;;;;;;;11.70;73.06;99791.56;10142822;29;20087;-78
2022/11/15 07:40:15;;;;;;;9.68;5.90;;;;;;;12.24;70.07;99799.00;10137134;29;20048;-80
2022/11/15 07:45:42;;;;;;;10.65;8.23;;;;;;;12.16;68.94;99800.59;10121677;29;20048;-79
2022/11/15 07:51:03;;;;;;;12.98;8.57;;;;;;;11.93;69.61;99802.84;10131472;29;20053;-80
2022/11/15 07:56:30;;;;;;;12.23;7.63;;;;;;;11.96;69.35;99796.31;10128161;29;20048;-79
2022/11/15 08:01:51;;;;;;;11.43;7.95;;;;;;;11.74;70.03;99805.59;10116960;29;20427;-81
2022/11/15 08:07:13;;;;;;;13.07;6.70;;;;;;;11.79;70.25;99799.75;10126700;29;20057;-79
2022/11/15 08:12:36;;;;;;;7.28;5.82;;;;;;;12.07;69.22;99793.44;10100966;29;20049;-79
2022/11/15 08:17:58;;;;;;;5.80;4.53;;;;;;;12.66;67.21;99790.44;10106481;29;20060;-78
2022/11/15 08:23:19;;;;;;;4.25;3.85;;;;;;;13.23;64.47;99781.03;10118694;29;20057;-79
2022/11/15 08:28:42;;;;;;;5.95;3.72;;;;;;;13.91;62.37;99774.09;10108377;29;20153;-79
2022/11/15 08:34:04;;;;;;;5.25;3.25;;;;;;;14.00;62.30;99773.13;10126355;29;20114;-80
2022/11/15 08:39:25;;;;;;;4.50;3.73;;;;;;;13.96;62.18;99774.47;10125949;29;20053;-79
2022/11/15 08:44:48;;;;;;;6.68;3.33;;;;;;;14.23;61.44;99777.94;10119897;29;20407;-81
2022/11/15 08:50:10;;;;;;;4.82;2.60;;;;;;;13.74;61.98;99778.56;10115261;29;20048;-80
2022/11/15 08:55:31;;;;;;;3.70;2.95;;;;;;;13.93;61.22;99774.75;10123534;29;20060;-80
2022/11/15 09:00:53;;;;;;;2.75;2.40;;;;;;;14.28;59.89;99775.59;10126139;29;20049;-80
2022/11/15 09:06:15;;;;;;;3.00;2.47;;;;;;;14.37;59.63;99761.09;10116138;29;20049;-80
2022/11/15 09:11:37;;;;;;;3.53;1.83;;;;;;;14.38;59.17;99774.47;10125660;29;20044;-79
2022/11/15 09:17:00;;;;;;;4.47;2.85;;;;;;;14.18;59.46;99778.44;10116687;29;20444;-79
2022/11/15 09:22:22;;;;;;;3.08;2.85;;;;;;;14.89;58.20;99768.16;10117938;29;20056;-79
2022/11/15 09:27:43;;;;;;;5.05;2.67;;;;;;;15.08;57.26;99773.25;10119794;29;20502;-77
2022/11/15 09:33:09;;;;;;;5.50;2.08;;;;;;;14.62;57.86;99775.56;10142882;29;20514;-77
2022/11/15 09:38:31;;;;;;;2.65;2.30;;;;;;;14.57;58.09;99775.22;10105043;29;20057;-79
2022/11/15 09:44:05;;;;;;;3.25;2.25;;;;;;;15.13;55.81;99775.47;10115164;29;20503;-80
2022/11/15 09:49:30;;;;;;;2.97;2.20;;;;;;;15.15;56.05;99768.88;10103233;29;20049;-79
2022/11/15 09:54:50;;;;;;;2.33;1.80;;;;;;;14.34;56.74;99778.50;10108437;29;20055;-81
2022/11/15 10:00:05;;;;;;;2.33;1.55;;;;;;;14.29;56.47;99798.88;10130148;29;20050;-78
2022/11/15 10:05:30;;;;;;;1.83;1.73;;;;;;;14.75;55.34;99781.31;10143986;29;20080;-79
2022/11/15 10:10:38;;;;;;;2.38;1.58;;;;;;;14.81;55.05;99777.13;10131735;29;20085;-80
2022/11/15 10:15:45;;;;;;;5.80;2.75;;;;;;;14.93;54.77;99770.38;10122233;29;20053;-80
2022/11/15 10:20:53;;;;;;;3.20;1.90;;;;;;;15.22;53.46;99756.38;10108287;29;20049;-79
2022/11/15 10:26:00;;;;;;;1.52;1.42;;;;;;;14.40;53.45;99762.66;10117549;29;20087;-80
2022/11/15 10:31:23;;;;;;;3.50;1.60;;;;;;;15.02;52.82;99727.94;10157831;29;20044;-78
2022/11/15 10:36:28;;;;;;;2.65;1.35;;;;;;;15.63;51.02;99723.88;10116653;29;20325;-79
2022/11/15 10:41:35;;;;;;;2.13;1.45;;;;;;;15.50;50.68;99717.31;10125721;29;20076;-79
2022/11/15 10:46:40;;;;;;;1.05;0.93;;;;;;;16.40;48.22;99706.09;10132338;29;20141;-78
2022/11/15 10:51:54;;;;;;;5.35;1.00;;;;;;;16.47;45.86;99693.53;10106917;29;20048;-78
2022/11/15 10:57:00;;;;;;;16.45;2.08;;;;;;;16.76;45.65;99690.97;10147338;29;20048;-80
2022/11/15 11:02:03;;;;;;;1.10;1.00;;;;;;;17.27;45.01;99692.22;10138513;29;20408;-78
2022/11/15 11:07:21;;;;;;;0.77;0.75;;;;;;;17.45;44.31;99684.59;10119420;29;20049;-80
2022/11/15 11:12:29;;;;;;;1.65;1.10;;;;;;;17.41;45.17;99673.25;10122445;29;20048;-80
2022/11/15 11:17:50;;;;;;;1.42;1.10;;;;;;;17.03;45.79;99683.25;10120542;29;20041;-79
2022/11/15 11:23:03;;;;;;;3.00;1.20;;;;;;;17.88;45.04;99679.31;10130970;29;20503;-79
2022/11/15 11:28:26;;;;;;;1.30;1.00;;;;;;;18.50;43.91;99672.56;10142809;29;20051;-77
2022/11/15 11:33:33;;;;;;;1.55;1.20;;;;;;;18.47;43.82;99657.47;10144849;29;20040;-79
2022/11/15 11:38:52;;;;;;;2.55;1.20;;;;;;;19.40;42.57;99647.38;10122140;29;20178;-79
2022/11/15 11:44:09;;;;;;;2.37;1.17;;;;;;;18.71;43.44;99644.53;10089858;29;21218;-78
2022/11/15 11:49:18;;;;;;;1.67;1.17;;;;;;;18.39;43.44;99638.56;10084874;29;20131;-79
2022/11/15 11:54:31;;;;;;;2.33;1.65;;;;;;;19.05;42.29;99624.72;10096813;29;20052;-78
2022/11/15 11:59:40;;;;;;;2.63;1.60;;;;;;;18.71;42.48;99615.44;10094896;29;20136;-78
2022/11/15 12:04:48;;;;;;;1.98;1.35;;;;;;;17.86;44.58;99619.75;10083570;29;20864;-78
2022/11/15 12:09:58;;;;;;;2.55;1.90;;;;;;;19.40;41.92;99597.53;10095047;29;20053;-79
2022/11/15 12:15:04;;;;;;;2.17;1.20;;;;;;;19.12;41.97;99597.59;10107590;29;20056;-79
2022/11/15 12:20:17;;;;;;;5.60;1.95;;;;;;;18.71;42.94;99590.97;10104326;29;20145;-79
2022/11/15 12:25:24;;;;;;;2.95;1.40;;;;;;;18.41;42.85;99603.03;10096943;29;20045;-78
2022/11/15 12:30:41;;;;;;;2.78;1.30;;;;;;;18.28;43.20;99585.53;10081794;29;20044;-79
2022/11/15 12:35:45;;;;;;;2.53;1.50;;;;;;;17.89;44.07;99573.19;10089841;29;20048;-78
2022/11/15 12:41:17;;;;;;;2.22;1.10;;;;;;;17.46;44.66;99574.97;10093491;29;20052;-78
2022/11/15 12:46:23;;;;;;;;;;;;;;;17.30;44.92;99584.13;10087375;29;20048;-78
2022/11/15 12:52:08;;;;;;;1.65;0.98;;;;;;;16.90;45.72;99580.00;10098920;29;19949;-79
2022/11/15 12:57:30;;;;;;;5.47;1.30;;;;;;;17.63;44.64;99581.84;10069745;29;20077;-79
2022/11/15 13:02:36;;;;;;;1.93;1.13;;;;;;;17.66;44.49;99562.50;10084691;29;20652;-79
2022/11/15 13:07:58;;;;;;;1.48;1.38;;;;;;;18.18;44.14;99549.69;10060950;29;20055;-80
2022/11/15 13:13:03;;;;;;;1.60;1.17;;;;;;;18.51;43.18;99539.13;10069150;29;20505;-79
2022/11/15 13:18:31;;;;;;;0.95;0.95;;;;;;;17.59;44.60;99545.25;10085811;29;20063;-80
2022/11/15 13:23:34;;;;;;;1.67;1.02;;;;;;;17.58;44.77;99534.59;10077518;29;20053;-79
2022/11/15 13:28:39;;;;;;;1.40;1.30;;;;;;;17.30;44.74;99535.28;10105943;29;20039;-78
2022/11/15 13:33:44;;;;;;;2.58;1.30;;;;;;;16.41;46.55;99529.78;10096651;29;20052;-78
2022/11/15 13:38:56;;;;;;;1.80;1.40;;;;;;;16.73;47.74;99522.34;10070724;29;20057;-80
2022/11/15 13:44:00;;;;;;;3.77;2.00;;;;;;;17.31;47.39;99519.88;10069825;29;20506;-79
2022/11/15 13:49:06;;;;;;;2.28;1.83;;;;;;;16.97;48.34;99513.94;10090520;29;20053;-79
2022/11/15 13:54:20;;;;;;;2.50;1.98;;;;;;;16.90;49.99;99514.88;10078010;29;20057;-81
2022/11/15 13:59:26;;;;;;;2.42;2.22;;;;;;;16.66;50.48;99505.13;10083636;29;20196;-78
2022/11/15 14:04:33;;;;;;;2.50;2.30;;;;;;;16.05;51.73;99497.03;10080558;29;21180;-79
2022/11/15 14:09:38;;;;;;;3.70;2.30;;;;;;;15.58;52.24;99503.44;10061238;29;20052;-79
2022/11/15 14:14:46;;;;;;;2.30;2.10;;;;;;;15.25;52.97;99504.44;10062330;29;20060;-80
2022/11/15 14:19:51;;;;;;;2.58;2.15;;;;;;;15.32;52.69;99499.13;10080307;29;20055;-79
2022/11/15 14:25:16;;;;;;;3.72;2.13;;;;;;;15.64;51.89;99484.63;10085746;29;20059;-80
2022/11/15 14:30:19;;;;;;;5.65;2.60;;;;;;;15.23;52.65;99492.94;10085664;29;20424;-80
2022/11/15 14:35:24;;;;;;;4.43;2.80;;;;;;;15.08;53.00;99485.72;10075877;29;20049;-78
2022/11/15 14:40:27;;;;;;;4.32;2.60;;;;;;;14.97;52.75;99478.84;10098243;29;20153;-78
2022/11/15 14:45:30;;;;;;;4.18;2.63;;;;;;;14.76;52.96;99482.97;10131234;29;20060;-78
2022/11/15 14:50:35;;;;;;;6.47;3.20;;;;;;;14.67;53.27;99483.16;10151856;29;20044;-81
2022/11/15 14:55:38;;;;;;;3.42;2.67;;;;;;;14.42;53.82;99477.78;10087996;29;20099;-78
2022/11/15 15:00:42;;;;;;;3.80;2.35;;;;;;;14.19;54.82;99469.53;10091752;29;20135;-77
2022/11/15 15:05:46;;;;;;;2.70;2.15;;;;;;;13.96;55.06;99457.72;10096544;29;20063;-80
2022/11/15 15:10:49;;;;;;;3.53;2.70;;;;;;;13.71;55.86;99449.59;10079617;29;20060;-80
2022/11/15 15:15:53;;;;;;;3.47;1.98;;;;;;;13.44;56.29;99448.91;10092899;29;20153;-78
2022/11/15 15:21:02;;;;;;;3.55;2.05;;;;;;;13.45;56.69;99447.06;10072387;29;20053;-79
2022/11/15 15:26:05;;;;;;;5.38;2.08;;;;;;;13.37;56.89;99441.63;10084728;29;20060;-78
2022/11/15 15:31:09;;;;;;;3.08;2.30;;;;;;;13.23;57.08;99433.16;10076074;29;20071;-79
2022/11/15 15:36:15;;;;;;;4.25;2.00;;;;;;;13.35;56.69;99432.84;10080569;29;20677;-81
2022/11/15 15:41:18;;;;;;;9.15;5.88;;;;;;;13.37;56.37;99438.94;10071723;29;20419;-81
2022/11/15 15:46:21;;;;;;;4.78;2.60;;;;;;;13.38;56.37;99427.97;10106110;29;20083;-78
2022/11/15 15:51:25;;;;;;;3.05;2.42;;;;;;;13.34;56.26;99421.19;10111741;29;20044;-78
2022/11/15 15:56:28;;;;;;;4.13;2.58;;;;;;;13.39;55.98;99412.66;10111230;29;20052;-81
2022/11/15 16:01:31;;;;;;;7.88;2.22;;;;;;;13.38;55.85;99414.47;10105043;29;20080;-80
2022/11/15 16:06:39;;;;;;;2.65;2.10;;;;;;;13.33;56.31;99415.97;10090390;29;20053;-78
2022/11/15 16:11:42;;;;;;;4.60;1.90;;;;;;;13.27;56.31;99404.84;10120993;29;20690;-78
2022/11/15 16:16:44;;;;;;;5.55;2.20;;;;;;;13.25;56.27;99395.25;10090072;29;20049;-79
2022/11/15 16:21:49;;;;;;;2.88;1.90;;;;;;;13.10;56.35;99388.78;10077491;29;20120;-79
2022/11/15 16:26:52;;;;;;;6.63;2.00;;;;;;;13.14;56.26;99382.91;10121687;29;20055;-79
2022/11/15 16:31:55;;;;;;;3.85;2.08;;;;;;;13.03;56.45;99367.88;10085339;29;20059;-79
2022/11/15 16:37:00;;;;;;;3.30;1.60;;;;;;;12.89;56.75;99363.16;10095858;29;20071;-79
2022/11/15 16:42:03;;;;;;;6.35;2.17;;;;;;;12.85;56.85;99352.84;10097221;29;20060;-78
2022/11/15 16:47:06;;;;;;;3.53;2.03;;;;;;;12.85;57.23;99351.00;10071068;29;20060;-79
2022/11/15 16:52:10;;;;;;;3.00;2.22;;;;;;;12.78;57.78;99349.94;10073125;29;20056;-79
2022/11/15 16:57:13;;;;;;;4.15;2.28;;;;;;;12.71;58.17;99354.31;10092105;29;20119;-77
2022/11/15 17:02:16;;;;;;;4.95;2.70;;;;;;;12.70;58.67;99349.91;10099742;29;20047;-80
2022/11/15 17:07:20;;;;;;;2.88;2.60;;;;;;;12.60;59.53;99347.38;10097086;29;20169;-80
2022/11/15 17:12:23;;;;;;;4.93;3.53;;;;;;;12.58;60.32;99344.81;10098287;29;20107;-79
2022/11/15 17:17:26;;;;;;;6.13;3.45;;;;;;;12.52;61.10;99336.56;10091951;29;20619;-79
2022/11/15 17:22:31;;;;;;;5.18;3.50;;;;;;;12.44;62.04;99336.53;10090356;29;20048;-78
2022/11/15 17:27:34;;;;;;;5.35;3.35;;;;;;;12.40;62.59;99327.94;10071661;29;20049;-79
2022/11/15 17:32:37;;;;;;;;;;;;;;;12.46;62.57;99308.44;10072272;29;20048;-80
2022/11/15 17:37:41;;;;;;;;;;;;;;;12.45;62.93;99304.06;10069571;29;19924;-79
2022/11/15 17:42:44;;;;;;;4.28;3.10;;;;;;;12.42;63.17;99306.22;10075993;29;20466;-79
2022/11/15 17:47:46;;;;;;;6.40;3.42;;;;;;;12.43;63.18;99308.75;10100543;29;20048;-79
2022/11/15 17:52:51;;;;;;;5.70;2.67;;;;;;;12.39;63.47;99300.16;10078032;29;20059;-78
2022/11/15 17:57:53;;;;;;;3.50;2.50;;;;;;;12.37;63.65;99301.34;10072420;29;20076;-79
2022/11/15 18:02:57;;;;;;;3.05;2.38;;;;;;;12.29;64.02;99294.06;10096325;29;20049;-77
2022/11/15 18:08:01;;;;;;;3.92;2.85;;;;;;;12.22;64.69;99301.06;10094982;29;20414;-78
2022/11/15 18:13:04;;;;;;;5.25;2.65;;;;;;;12.24;64.88;99295.53;10093224;29;20084;-79
2022/11/15 18:18:06;;;;;;;3.72;2.95;;;;;;;12.30;64.80;99292.22;10093742;29;20056;-78
2022/11/15 18:23:11;;;;;;;4.05;2.60;;;;;;;12.20;64.95;99299.53;10063452;29;20060;-78
2022/11/15 18:28:13;;;;;;;5.22;3.17;;;;;;;12.44;64.64;99286.19;10086441;29;20046;-79
2022/11/15 18:33:17;;;;;;;6.03;3.17;;;;;;;12.42;64.50;99285.50;10087318;29;20064;-78
2022/11/15 18:38:21;;;;;;;5.50;3.40;;;;;;;12.45;64.54;99285.22;10080683;29;20104;-77
2022/11/15 18:43:24;;;;;;;4.30;2.97;;;;;;;12.43;64.77;99272.91;10149026;29;20071;-81
2022/11/15 18:48:29;;;;;;;3.47;3.17;;;;;;;12.43;64.81;99265.69;10127128;29;20111;-80
2022/11/15 18:53:34;;;;;;;3.75;2.88;;;;;;;12.39;64.96;99258.91;10105791;29;20056;-80
2022/11/15 18:58:40;;;;;;;5.40;3.10;;;;;;;12.44;64.78;99253.03;10114504;29;20090;-79
2022/11/15 19:03:45;;;;;;;3.60;2.72;;;;;;;12.45;64.83;99254.72;10080750;29;20415;-81
2022/11/15 19:08:53;;;;;;;3.35;2.78;;;;;;;12.41;64.87;99246.13;10100159;29;20169;-79
2022/11/15 19:13:58;;;;;;;4.47;3.10;;;;;;;12.50;64.57;99238.91;10106931;29;20056;-79
2022/11/15 19:19:03;;;;;;;3.97;2.45;;;;;;;12.50;64.52;99241.59;10098217;29;20687;-78
2022/11/15 19:24:09;;;;;;;3.60;2.53;;;;;;;12.50;64.40;99247.84;10098077;29;20049;-78
2022/11/15 19:29:12;;;;;;;2.85;2.42;;;;;;;12.51;64.53;99244.16;10121227;29;20048;-79
2022/11/15 19:34:16;;;;;;;2.42;2.22;;;;;;;12.48;64.67;99236.41;10117296;29;20108;-77
2022/11/15 19:39:20;;;;;;;5.15;2.65;;;;;;;12.49;64.66;99240.78;10109739;29;20511;-78
2022/11/15 19:44:25;;;;;;;3.05;2.42;;;;;;;12.45;64.75;99233.19;10066111;29;20056;-78
2022/11/15 19:49:28;;;;;;;3.50;2.83;;;;;;;12.37;64.92;99223.25;10089772;29;20049;-78
2022/11/15 19:54:32;;;;;;;5.53;3.17;;;;;;;12.32;65.20;99217.50;10098102;29;20051;-79
2022/11/15 19:59:34;;;;;;;3.85;3.30;;;;;;;12.27;65.68;99217.13;10080982;29;20108;-80
2022/11/15 20:04:37;;;;;;;4.22;3.47;;;;;;;12.28;65.45;99227.75;10087071;29;20061;-78
2022/11/15 20:09:42;;;;;;;4.07;3.47;;;;;;;12.25;65.64;99216.44;10113375;29;20072;-79
2022/11/15 20:14:45;;;;;;;6.78;4.22;;;;;;;12.11;65.88;99218.75;10103675;29;20131;-79
2022/11/15 20:19:48;;;;;;;6.07;4.18;;;;;;;12.08;65.97;99219.06;10094874;29;20513;-79
2022/11/15 20:24:52;;;;;;;6.97;4.45;;;;;;;12.04;66.20;99216.84;10079786;29;20052;-79
2022/11/15 20:29:55;;;;;;;6.43;3.67;;;;;;;12.05;66.05;99223.94;10095123;29;20048;-79
2022/11/15 20:34:58;;;;;;;6.82;4.45;;;;;;;12.05;66.15;99222.09;10084081;29;20065;-80
2022/11/15 20:40:02;;;;;;;5.65;3.45;;;;;;;12.07;65.73;99212.00;10072623;29;21249;-79
2022/11/15 20:45:06;;;;;;;3.85;3.28;;;;;;;12.02;65.90;99206.28;10091882;29;20052;-79
2022/11/15 20:50:09;;;;;;;6.75;3.92;;;;;;;12.03;65.72;99207.09;10094220;29;20527;-78
2022/11/15 20:55:34;;;;;;;5.93;3.80;;;;;;;12.02;65.71;99192.81;10085605;29;20057;-78
2022/11/15 21:00:37;;;;;;;5.13;3.90;;;;;;;12.02;65.67;99195.50;10101534;29;20052;-80
2022/11/15 21:05:42;;;;;;;4.30;3.65;;;;;;;12.01;65.44;99196.50;10091527;29;20053;-79
2022/11/15 21:16:10;;;;;;;5.60;4.03;;;;;;;11.99;65.11;99176.16;10084683;29;20067;-80
2022/11/15 21:21:14;;;;;;;5.68;3.25;;;;;;;11.94;65.19;99176.63;10089010;29;20054;-80
2022/11/15 21:26:18;;;;;;;5.00;3.33;;;;;;;11.93;65.04;99167.72;10091420;29;20494;-80
2022/11/15 21:31:21;;;;;;;3.80;2.85;;;;;;;11.92;64.65;99157.09;10056914;29;20049;-80
2022/11/15 21:36:24;;;;;;;3.50;2.75;;;;;;;11.94;64.31;99160.50;10059790;29;20057;-80
2022/11/15 21:41:29;;;;;;;3.42;2.80;;;;;;;12.08;63.78;99145.56;10059889;29;20520;-80
2022/11/15 21:46:32;;;;;;;5.03;2.97;;;;;;;12.09;63.71;99148.06;10087407;29;20048;-80
2022/11/15 21:51:35;;;;;;;8.73;3.72;;;;;;;12.06;63.83;99151.09;10096166;29;20048;-79
2022/11/15 21:56:40;;;;;;;7.50;3.50;;;;;;;12.04;63.64;99149.56;10092272;29;20060;-79
2022/11/15 22:07:04;;;;;;;5.75;3.60;;;;;;;12.04;63.73;99139.69;10115683;29;20049;-79
2022/11/15 22:12:09;;;;;;;6.15;4.00;;;;;;;11.90;64.02;99140.28;10126932;29;20048;-80
2022/11/15 22:17:11;;;;;;;3.80;3.35;;;;;;;11.97;63.85;99143.19;10138754;29;20113;-79
2022/11/15 22:22:14;;;;;;;4.45;3.65;;;;;;;11.93;63.89;99130.06;10142038;29;20108;-79
2022/11/15 22:27:19;;;;;;;6.35;4.35;;;;;;;11.90;63.78;99138.47;10148282;29;20084;-79
2022/11/15 22:32:22;;;;;;;6.43;4.50;;;;;;;11.83;63.82;99129.34;10144984;29;20135;-78
2022/11/15 22:37:24;;;;;;;5.93;4.22;;;;;;;11.91;63.58;99118.59;10175089;29;20052;-78
2022/11/15 22:42:29;;;;;;;5.45;3.47;;;;;;;11.80;63.82;99126.16;10150371;29;20052;-78
2022/11/15 22:47:32;;;;;;;3.95;3.50;;;;;;;11.90;63.45;99114.25;10135473;29;20073;-79
2022/11/15 22:52:34;;;;;;;6.72;3.60;;;;;;;11.78;63.79;99110.16;10104434;29;20045;-80
2022/11/15 22:57:39;;;;;;;3.90;3.08;;;;;;;11.77;63.71;99100.41;10120233;29;20398;-79
2022/11/15 23:02:42;;;;;;;5.63;3.92;;;;;;;11.81;63.29;99093.69;10116911;29;20073;-79
2022/11/15 23:07:45;;;;;;;3.88;3.42;;;;;;;11.67;63.48;99087.06;10116599;29;20127;-81
2022/11/15 23:18:09;;;;;;;6.38;3.63;;;;;;;11.67;63.67;99080.88;10117407;29;20077;-81
2022/11/15 23:23:13;;;;;;;5.47;3.38;;;;;;;11.72;63.37;99081.22;10106030;29;20446;-79
2022/11/15 23:28:17;;;;;;;5.55;3.75;;;;;;;11.63;63.55;99084.91;10114258;29;20120;-80
2022/11/15 23:38:41;;;;;;;5.07;3.45;;;;;;;11.72;63.12;99079.38;10101295;29;20072;-77
2022/11/15 23:43:45;;;;;;;7.35;3.47;;;;;;;11.65;64.08;99067.56;10128758;29;20092;-81
2022/11/15 23:48:48;;;;;;;5.60;3.83;;;;;;;11.45;66.22;99077.75;10128245;29;20087;-80
2022/11/15 23:53:51;;;;;;;6.82;4.00;;;;;;;11.18;70.09;99081.50;10137318;29;20120;-80
2022/11/15 23:58:55;;;;;;;9.25;4.28;;;;;;;10.89;72.55;99067.50;10124621;29;20397;-80
